Time;durP1;ratioP1;P1;durP2;ratioP2;P2;SDS_P1;SDS_P2;PMS_P1;PMS_P2;Temp;Humidity;BMP_temperature;BMP_pressure;BME280_temperature;BME280_humidity;BME280_pressure;Samples;Min_cycle;Max_cycle;Signal;HPM_P1;HPM_P2
2021/01/28 00:01:17;;;;;;;5.40;4.68;;;1.40;99.90;;;;;;5058144;22;20110;-75
2021/01/28 00:03:43;;;;;;;7.65;4.65;;;1.40;99.90;;;;;;5009305;28;20078;-74
2021/01/28 00:06:09;;;;;;;6.18;4.15;;;1.40;99.90;;;;;;5007105;28;20620;-74
2021/01/28 00:08:35;;;;;;;7.53;5.07;;;1.40;99.90;;;;;;5003291;28;20074;-73
2021/01/28 00:11:00;;;;;;;5.93;4.80;;;1.40;99.90;;;;;;5011000;28;20095;-74
2021/01/28 00:13:26;;;;;;;5.38;4.35;;;1.40;99.90;;;;;;5010904;28;20079;-73
2021/01/28 00:15:52;;;;;;;8.00;5.03;;;1.50;99.90;;;;;;5004590;28;20089;-74
2021/01/28 00:18:17;;;;;;;7.28;5.18;;;1.50;99.90;;;;;;4997113;28;20078;-74
2021/01/28 00:20:48;;;;;;;4.90;3.88;;;1.60;99.90;;;;;;5004853;28;20186;-73
2021/01/28 00:23:14;;;;;;;6.05;4.93;;;1.50;99.90;;;;;;5003540;28;20074;-73
2021/01/28 00:25:40;;;;;;;6.40;4.65;;;1.50;99.90;;;;;;5009405;28;20132;-73
2021/01/28 00:28:09;;;;;;;8.70;5.32;;;1.50;99.90;;;;;;5011629;28;20075;-73
2021/01/28 00:30:38;;;;;;;5.93;4.45;;;1.50;99.90;;;;;;5003639;28;20090;-74
2021/01/28 00:33:05;;;;;;;6.10;5.07;;;1.50;99.90;;;;;;4995451;28;20070;-74
2021/01/28 00:35:37;;;;;;;4.97;4.20;;;1.50;99.90;;;;;;4994061;28;20075;-73
2021/01/28 00:38:06;;;;;;;5.47;3.97;;;1.50;99.90;;;;;;4990109;28;20114;-74
2021/01/28 00:40:32;;;;;;;5.35;4.30;;;1.50;99.90;;;;;;4999284;28;20593;-74
2021/01/28 00:42:57;;;;;;;6.32;4.85;;;1.50;99.90;;;;;;4990763;28;20079;-74
2021/01/28 00:45:26;;;;;;;5.78;4.60;;;1.50;99.90;;;;;;4990661;28;20095;-74
2021/01/28 00:47:51;;;;;;;4.68;3.95;;;1.50;99.90;;;;;;4991047;28;20925;-73
2021/01/28 00:50:20;;;;;;;5.43;4.32;;;1.50;99.90;;;;;;5003414;28;20095;-74
2021/01/28 00:52:46;;;;;;;5.40;4.00;;;1.50;99.90;;;;;;4989398;28;20079;-75
2021/01/28 00:55:13;;;;;;;5.40;4.32;;;1.60;99.90;;;;;;4990591;28;20086;-74
2021/01/28 00:57:39;;;;;;;4.13;3.72;;;1.60;99.90;;;;;;4993856;28;20565;-73
2021/01/28 01:00:27;;;;;;;7.70;4.18;;;1.60;99.90;;;;;;4993847;28;20195;-73
2021/01/28 01:02:53;;;;;;;4.55;3.88;;;1.60;99.90;;;;;;5009432;28;20461;-75
2021/01/28 01:05:21;;;;;;;5.53;4.57;;;1.70;99.90;;;;;;4987059;28;20117;-74
2021/01/28 01:07:47;;;;;;;5.82;4.40;;;1.70;99.90;;;;;;4990574;28;20086;-73
2021/01/28 01:10:44;;;;;;;4.47;3.90;;;1.70;99.90;;;;;;4994964;28;20098;-73
2021/01/28 01:13:13;;;;;;;4.72;4.05;;;1.70;99.90;;;;;;4976682;28;20094;-74
2021/01/28 01:15:39;;;;;;;4.43;3.70;;;1.70;99.90;;;;;;5001097;28;20506;-74
2021/01/28 01:18:06;;;;;;;4.55;3.80;;;1.60;99.90;;;;;;4991557;28;20208;-74
2021/01/28 01:20:31;;;;;;;5.43;3.67;;;1.60;99.90;;;;;;4991026;28;20523;-73
2021/01/28 01:22:57;;;;;;;5.35;4.13;;;1.70;99.90;;;;;;5002297;28;20074;-74
2021/01/28 01:25:23;;;;;;;5.50;4.03;;;1.70;99.90;;;;;;5006368;28;20086;-74
2021/01/28 01:27:49;;;;;;;5.10;3.92;;;1.70;99.90;;;;;;4991990;28;20075;-74
2021/01/28 01:30:17;;;;;;;5.35;4.05;;;1.80;99.90;;;;;;4997008;28;20082;-74
2021/01/28 01:32:43;;;;;;;4.13;3.70;;;1.80;99.90;;;;;;5005488;28;20097;-74
2021/01/28 01:35:10;;;;;;;5.15;4.28;;;1.70;99.90;;;;;;4993494;28;20543;-74
2021/01/28 01:37:36;;;;;;;5.43;3.63;;;1.80;99.90;;;;;;4989989;28;20140;-73
2021/01/28 01:40:02;;;;;;;7.65;3.75;;;1.80;99.90;;;;;;5005369;28;20185;-73
2021/01/28 01:42:28;;;;;;;4.55;3.40;;;1.80;99.90;;;;;;5000578;28;20210;-73
2021/01/28 01:44:53;;;;;;;4.60;3.72;;;1.80;99.90;;;;;;4990571;28;20161;-74
2021/01/28 01:47:47;;;;;;;4.18;3.17;;;1.80;99.90;;;;;;4989473;28;20074;-74
2021/01/28 01:50:29;;;;;;;4.22;3.33;;;1.80;99.90;;;;;;4989502;28;20106;-74
2021/01/28 01:52:57;;;;;;;4.28;3.53;;;1.70;99.90;;;;;;4991083;28;20085;-73
2021/01/28 01:55:22;;;;;;;5.47;3.78;;;1.70;99.90;;;;;;4989386;28;20077;-74
2021/01/28 01:57:48;;;;;;;4.10;3.50;;;1.80;99.90;;;;;;4994724;28;20158;-73
2021/01/28 02:00:18;;;;;;;3.80;3.28;;;1.80;99.90;;;;;;4999144;28;20102;-73
2021/01/28 02:02:47;;;;;;;5.60;3.80;;;1.70;99.90;;;;;;4994636;28;20459;-73
2021/01/28 02:05:24;;;;;;;3.10;2.63;;;1.80;99.90;;;;;;4988628;28;20581;-75
2021/01/28 02:07:49;;;;;;;4.22;3.30;;;1.80;99.90;;;;;;4989165;28;20075;-75
2021/01/28 02:10:17;;;;;;;3.88;3.10;;;1.80;99.90;;;;;;4989223;28;20102;-73
2021/01/28 02:12:42;;;;;;;3.67;3.08;;;1.80;99.90;;;;;;4987821;28;20067;-73
2021/01/28 02:15:10;;;;;;;5.95;3.45;;;1.80;99.90;;;;;;4986853;28;20676;-73
2021/01/28 02:17:37;;;;;;;3.63;2.85;;;1.90;99.90;;;;;;4987651;28;20078;-73
2021/01/28 02:20:33;;;;;;;3.90;2.97;;;1.90;99.90;;;;;;4993208;28;20101;-74
2021/01/28 02:23:15;;;;;;;4.05;3.53;;;1.90;99.90;;;;;;5008712;28;20102;-73
2021/01/28 02:25:43;;;;;;;4.10;3.15;;;1.90;99.90;;;;;;5007731;28;20446;-73
2021/01/28 02:28:12;;;;;;;4.28;2.90;;;1.90;99.90;;;;;;5007986;28;20101;-74
2021/01/28 02:30:38;;;;;;;4.70;3.80;;;1.90;99.90;;;;;;5008306;28;20092;-74
2021/01/28 02:33:06;;;;;;;5.18;3.85;;;1.90;99.90;;;;;;5006455;28;20241;-73
2021/01/28 02:35:34;;;;;;;4.75;3.95;;;1.90;99.90;;;;;;5007537;28;20628;-74
2021/01/28 02:38:05;;;;;;;4.50;3.35;;;1.90;99.90;;;;;;5008175;28;20149;-74
2021/01/28 02:40:31;;;;;;;4.13;3.22;;;1.80;99.90;;;;;;5001877;28;20094;-74
2021/01/28 02:42:57;;;;;;;4.95;3.42;;;1.80;99.90;;;;;;5005679;28;20078;-74
2021/01/28 02:45:26;;;;;;;4.35;3.13;;;1.90;99.90;;;;;;5004755;28;20595;-73
2021/01/28 02:47:58;;;;;;;3.90;3.28;;;1.90;99.90;;;;;;5003846;28;20588;-74
2021/01/28 02:50:24;;;;;;;4.88;3.50;;;1.90;99.90;;;;;;4991966;28;20125;-73
2021/01/28 02:52:55;;;;;;;4.75;3.40;;;2.10;99.90;;;;;;4992366;28;20181;-76
2021/01/28 02:55:21;;;;;;;3.55;2.80;;;2.00;99.90;;;;;;5006982;28;20078;-73
2021/01/28 02:57:46;;;;;;;5.88;3.10;;;2.00;99.90;;;;;;5001541;28;20101;-74
2021/01/28 03:00:15;;;;;;;5.45;3.58;;;1.90;99.90;;;;;;4995704;28;20098;-75
2021/01/28 03:02:40;;;;;;;4.35;3.58;;;2.00;99.90;;;;;;5007880;28;20078;-74
2021/01/28 03:05:07;;;;;;;4.32;3.38;;;2.00;99.90;;;;;;5000828;28;20108;-74
2021/01/28 03:07:33;;;;;;;3.42;2.88;;;2.00;99.90;;;;;;4995377;28;20078;-75
2021/01/28 03:09:58;;;;;;;4.80;3.38;;;2.00;99.90;;;;;;4989591;28;20090;-73
2021/01/28 03:12:25;;;;;;;5.00;3.30;;;1.90;99.90;;;;;;4988488;28;20075;-73
2021/01/28 03:14:50;;;;;;;4.13;3.53;;;2.00;99.90;;;;;;4998126;28;20074;-74
2021/01/28 03:17:16;;;;;;;4.78;3.35;;;1.90;99.90;;;;;;4997412;28;20093;-73
2021/01/28 03:19:42;;;;;;;4.72;3.42;;;2.00;99.90;;;;;;5000532;28;20101;-74
2021/01/28 03:22:07;;;;;;;4.75;3.63;;;2.00;99.90;;;;;;4989651;28;20110;-73
2021/01/28 03:24:33;;;;;;;3.40;3.03;;;2.00;99.90;;;;;;4989595;28;20113;-73
2021/01/28 03:26:59;;;;;;;5.00;3.50;;;1.90;99.90;;;;;;4989562;28;20142;-73
2021/01/28 03:29:25;;;;;;;4.78;3.40;;;1.90;99.90;;;;;;4997698;28;20067;-74
2021/01/28 03:31:50;;;;;;;4.93;3.55;;;2.00;99.90;;;;;;5005126;28;20077;-75
2021/01/28 03:34:16;;;;;;;7.07;4.47;;;2.00;99.90;;;;;;5006976;28;20081;-74
2021/01/28 03:36:42;;;;;;;4.68;3.20;;;2.00;99.90;;;;;;5005151;28;20161;-73
2021/01/28 03:39:08;;;;;;;4.07;3.33;;;2.00;99.90;;;;;;4989642;28;20083;-73
2021/01/28 03:41:34;;;;;;;4.20;3.55;;;1.90;99.90;;;;;;4993587;28;20094;-74
2021/01/28 03:43:59;;;;;;;3.90;3.08;;;1.90;99.90;;;;;;4994860;28;20094;-73
2021/01/28 03:46:25;;;;;;;4.70;3.08;;;1.80;99.90;;;;;;4985886;28;20099;-74
2021/01/28 03:48:52;;;;;;;4.05;3.03;;;1.90;99.90;;;;;;4995506;28;20403;-73
2021/01/28 03:51:17;;;;;;;3.60;3.13;;;1.90;99.90;;;;;;5002250;28;20586;-74
2021/01/28 03:53:43;;;;;;;4.10;3.00;;;2.00;99.90;;;;;;4994964;28;20075;-74
2021/01/28 03:56:08;;;;;;;3.72;3.05;;;2.00;99.90;;;;;;4987534;28;20158;-73
2021/01/28 03:58:34;;;;;;;4.00;3.22;;;2.00;99.90;;;;;;5004546;28;20074;-74
2021/01/28 04:00:59;;;;;;;2.88;2.33;;;2.00;99.90;;;;;;4996167;28;20172;-74
2021/01/28 04:03:25;;;;;;;4.45;2.83;;;2.00;99.90;;;;;;4990838;28;20083;-74
2021/01/28 04:05:50;;;;;;;4.43;2.70;;;2.00;99.90;;;;;;4986857;28;20614;-73
2021/01/28 04:08:16;;;;;;;3.42;2.70;;;1.90;99.90;;;;;;4987541;28;20078;-74
2021/01/28 04:10:41;;;;;;;3.65;2.92;;;1.90;99.90;;;;;;4987299;28;20083;-73
2021/01/28 04:13:09;;;;;;;3.63;2.80;;;1.90;99.90;;;;;;4986340;28;20083;-73
2021/01/28 04:15:35;;;;;;;3.25;2.67;;;1.90;99.90;;;;;;4987199;28;20075;-73
2021/01/28 04:18:01;;;;;;;4.68;2.78;;;1.90;99.90;;;;;;4987856;28;20526;-74
2021/01/28 04:20:30;;;;;;;4.00;2.88;;;1.90;99.90;;;;;;4985861;28;20103;-74
2021/01/28 04:22:57;;;;;;;3.15;2.58;;;1.90;99.90;;;;;;4987471;28;20613;-73
2021/01/28 04:25:25;;;;;;;6.40;2.80;;;1.90;99.90;;;;;;4988304;28;20173;-74
2021/01/28 04:27:51;;;;;;;2.80;2.55;;;1.90;99.90;;;;;;5005738;28;20067;-73
2021/01/28 04:30:22;;;;;;;2.28;1.70;;;1.90;99.90;;;;;;5006188;28;20163;-73
2021/01/28 04:32:47;;;;;;;2.45;1.92;;;2.00;99.90;;;;;;4989573;28;20153;-73
2021/01/28 04:35:13;;;;;;;2.00;1.67;;;2.00;99.90;;;;;;4990869;28;20133;-73
2021/01/28 04:37:40;;;;;;;2.30;1.90;;;2.00;99.90;;;;;;4995888;28;20090;-74
2021/01/28 04:40:11;;;;;;;1.88;1.58;;;2.00;99.90;;;;;;5002023;28;20170;-74
2021/01/28 04:42:47;;;;;;;2.38;1.95;;;2.00;99.90;;;;;;4992297;28;20118;-74
2021/01/28 04:45:19;;;;;;;2.28;1.88;;;2.00;99.90;;;;;;5007817;28;20081;-73
2021/01/28 04:48:05;;;;;;;4.28;2.08;;;2.00;99.90;;;;;;4990432;28;20094;-74
2021/01/28 04:50:36;;;;;;;2.33;1.90;;;2.00;99.90;;;;;;4995374;28;20098;-74
2021/01/28 04:53:13;;;;;;;3.55;2.20;;;2.00;99.90;;;;;;4996427;28;20158;-74
2021/01/28 04:55:46;;;;;;;2.55;1.73;;;2.10;99.90;;;;;;5000095;28;20110;-74
2021/01/28 04:58:12;;;;;;;3.92;2.45;;;2.00;99.90;;;;;;4991936;28;20078;-73
2021/01/28 05:00:38;;;;;;;3.22;2.60;;;2.10;99.90;;;;;;5000735;28;20102;-73
2021/01/28 05:03:24;;;;;;;3.03;2.10;;;2.00;99.90;;;;;;4994367;28;20098;-73
2021/01/28 05:05:53;;;;;;;3.15;2.47;;;2.00;99.90;;;;;;4989286;28;20099;-73
2021/01/28 05:08:19;;;;;;;2.22;1.77;;;2.10;99.90;;;;;;5003294;28;20074;-73
2021/01/28 05:10:50;;;;;;;3.20;2.00;;;2.10;99.90;;;;;;4999832;28;20086;-73
2021/01/28 05:13:30;;;;;;;2.08;1.83;;;2.10;99.90;;;;;;5006523;28;20124;-74
2021/01/28 05:15:59;;;;;;;2.88;2.13;;;2.10;99.90;;;;;;4995340;28;20553;-74
2021/01/28 05:18:32;;;;;;;5.88;3.03;;;2.20;99.90;;;;;;5005426;28;20111;-74
2021/01/28 05:21:18;;;;;;;2.72;2.13;;;2.20;99.90;;;;;;4995594;28;20174;-73
2021/01/28 05:23:45;;;;;;;2.45;2.05;;;2.20;99.90;;;;;;4994631;28;20423;-74
2021/01/28 05:26:29;;;;;;;1.95;1.60;;;2.10;99.90;;;;;;5002716;28;20133;-74
2021/01/28 05:28:55;;;;;;;1.83;1.40;;;2.10;99.90;;;;;;5005762;28;20079;-73
2021/01/28 05:31:32;;;;;;;2.63;1.58;;;2.10;99.90;;;;;;5006921;28;20341;-73
2021/01/28 05:34:09;;;;;;;1.50;1.30;;;2.20;99.90;;;;;;4989494;28;20096;-74
2021/01/28 05:36:40;;;;;;;2.30;0.90;;;2.20;99.90;;;;;;4996593;28;20086;-75
2021/01/28 05:39:22;;;;;;;1.75;1.27;;;2.20;99.90;;;;;;4998205;28;20912;-74
2021/01/28 05:41:51;;;;;;;1.40;1.17;;;2.30;99.90;;;;;;4988034;28;20093;-73
2021/01/28 05:44:27;;;;;;;1.35;1.08;;;2.30;99.90;;;;;;4988274;28;20079;-73
2021/01/28 05:47:02;;;;;;;1.52;1.13;;;2.30;99.90;;;;;;4988979;28;20136;-73
2021/01/28 05:49:28;;;;;;;1.00;0.90;;;2.20;99.90;;;;;;5007777;28;20074;-74
2021/01/28 05:51:53;;;;;;;1.20;1.10;;;2.30;99.90;;;;;;5000485;28;20153;-74
2021/01/28 05:54:22;;;;;;;1.88;1.30;;;2.30;99.90;;;;;;4997912;28;20075;-73
2021/01/28 05:57:12;;;;;;;1.00;0.90;;;2.30;99.90;;;;;;4997965;28;20079;-73
2021/01/28 05:59:53;;;;;;;1.65;1.10;;;2.30;99.90;;;;;;4996751;28;20078;-75
2021/01/28 06:02:53;;;;;;;1.10;1.00;;;2.30;99.90;;;;;;4993837;28;20087;-74
2021/01/28 06:05:53;;;;;;;2.10;0.98;;;2.30;99.90;;;;;;4990091;28;20067;-74
2021/01/28 06:08:42;;;;;;;1.70;1.02;;;2.30;99.90;;;;;;4995418;28;20093;-77
2021/01/28 06:11:23;;;;;;;1.10;0.90;;;2.30;99.90;;;;;;5001474;28;20515;-74
2021/01/28 06:13:58;;;;;;;0.95;0.80;;;2.40;99.90;;;;;;4996223;28;20086;-74
2021/01/28 06:16:26;;;;;;;1.48;0.88;;;2.40;99.90;;;;;;4992350;28;20109;-73
2021/01/28 06:18:59;;;;;;;1.15;0.75;;;2.40;99.90;;;;;;5007522;28;20079;-73
2021/01/28 06:21:53;;;;;;;1.13;1.02;;;2.50;99.90;;;;;;4986685;28;20113;-73
2021/01/28 06:24:36;;;;;;;2.67;1.25;;;2.60;99.90;;;;;;4998371;28;20489;-73
2021/01/28 06:27:07;;;;;;;1.42;1.23;;;2.50;99.90;;;;;;5002753;28;20134;-73
2021/01/28 06:29:52;;;;;;;2.30;1.10;;;2.50;99.90;;;;;;5001919;28;20085;-74
2021/01/28 06:32:39;;;;;;;2.00;1.00;;;2.40;99.90;;;;;;4998113;28;20609;-73
2021/01/28 06:35:14;;;;;;;1.80;1.02;;;2.40;99.90;;;;;;5004831;28;20074;-74
2021/01/28 06:38:11;;;;;;;1.60;1.00;;;2.50;99.90;;;;;;5004330;28;20093;-73
2021/01/28 06:40:43;;;;;;;1.48;0.85;;;2.50;99.90;;;;;;4998898;28;20102;-73
2021/01/28 06:43:14;;;;;;;1.48;1.20;;;2.40;99.90;;;;;;5004127;28;20215;-74
2021/01/28 06:46:05;;;;;;;2.55;1.20;;;2.40;99.90;;;;;;4998441;28;20101;-71
2021/01/28 06:48:38;;;;;;;1.90;1.17;;;2.40;99.90;;;;;;5004292;28;20078;-73
2021/01/28 06:51:17;;;;;;;0.95;0.80;;;2.40;99.90;;;;;;4997591;28;20122;-74
2021/01/28 06:53:48;;;;;;;1.65;1.30;;;2.40;99.90;;;;;;5005100;28;20078;-76
2021/01/28 06:56:23;;;;;;;1.40;0.90;;;2.40;99.90;;;;;;5006890;28;20173;-74
2021/01/28 06:58:48;;;;;;;1.75;1.05;;;2.40;99.90;;;;;;4999786;28;20106;-76
2021/01/28 07:01:41;;;;;;;1.40;1.20;;;2.50;99.90;;;;;;4986311;28;20136;-73
2021/01/28 07:04:22;;;;;;;1.15;1.00;;;2.50;99.90;;;;;;4994437;28;20086;-73
2021/01/28 07:07:10;;;;;;;1.50;1.02;;;2.60;99.90;;;;;;5006032;28;20097;-73
2021/01/28 07:09:44;;;;;;;1.02;1.00;;;2.50;99.90;;;;;;4991505;28;20800;-74
2021/01/28 07:12:15;;;;;;;1.50;1.00;;;2.50;99.90;;;;;;4990993;28;20565;-73
2021/01/28 07:14:41;;;;;;;1.05;0.80;;;2.60;99.90;;;;;;4987087;28;20090;-73
2021/01/28 07:17:32;;;;;;;0.90;0.73;;;2.70;99.90;;;;;;4988739;28;20079;-72
2021/01/28 07:20:07;;;;;;;1.08;0.82;;;2.70;99.90;;;;;;4993629;28;20105;-73
2021/01/28 07:22:36;;;;;;;1.00;0.73;;;2.60;99.90;;;;;;4988792;28;20082;-73
2021/01/28 07:25:20;;;;;;;1.88;1.13;;;2.50;99.90;;;;;;4994570;28;20081;-73
2021/01/28 07:27:57;;;;;;;1.98;1.10;;;2.40;99.90;;;;;;5006276;28;20086;-74
2021/01/28 07:30:43;;;;;;;1.10;0.80;;;2.40;99.90;;;;;;5000030;28;20102;-75
2021/01/28 07:33:24;;;;;;;1.20;1.10;;;2.60;99.90;;;;;;4994813;28;20083;-73
2021/01/28 07:35:55;;;;;;;1.67;1.00;;;2.60;99.90;;;;;;4986099;28;20821;-73
2021/01/28 07:38:27;;;;;;;0.80;0.80;;;2.60;99.90;;;;;;4985176;28;20104;-74
2021/01/28 07:41:03;;;;;;;3.70;1.10;;;2.60;99.90;;;;;;4984874;28;20107;-73
2021/01/28 07:43:35;;;;;;;1.42;1.00;;;2.60;99.90;;;;;;4996753;28;20548;-79
2021/01/28 07:46:28;;;;;;;3.58;2.05;;;2.60;99.90;;;;;;4987268;28;20087;-72
2021/01/28 07:49:17;;;;;;;3.40;1.40;;;2.60;99.90;;;;;;4987487;28;20718;-74
2021/01/28 07:52:11;;;;;;;2.45;2.00;;;2.60;99.90;;;;;;5000036;28;20089;-75
2021/01/28 07:54:44;;;;;;;1.30;1.20;;;2.60;99.90;;;;;;4976901;28;20165;-72
2021/01/28 07:57:11;;;;;;;1.20;1.00;;;2.60;99.90;;;;;;5000376;28;20137;-76
2021/01/28 07:59:54;;;;;;;1.02;0.93;;;2.50;99.90;;;;;;4993147;28;20086;-76
2021/01/28 08:02:31;;;;;;;1.70;1.50;;;2.50;99.90;;;;;;4993048;28;20090;-74
2021/01/28 08:05:08;;;;;;;1.88;1.70;;;2.40;99.90;;;;;;4988281;28;20105;-74
2021/01/28 08:07:38;;;;;;;3.22;1.90;;;2.40;99.90;;;;;;5003119;28;20122;-72
2021/01/28 08:10:20;;;;;;;2.42;1.83;;;2.30;99.90;;;;;;5002447;28;20193;-76
2021/01/28 08:12:54;;;;;;;2.30;1.65;;;2.30;99.90;;;;;;4992634;28;20153;-73
2021/01/28 08:15:31;;;;;;;2.13;1.53;;;2.30;99.90;;;;;;4989633;28;20066;-73
2021/01/28 08:18:21;;;;;;;1.90;1.40;;;2.20;99.90;;;;;;5007755;28;20809;-75
2021/01/28 08:20:48;;;;;;;4.18;1.88;;;2.20;99.90;;;;;;5003636;28;20178;-74
2021/01/28 08:23:18;;;;;;;3.08;2.72;;;2.20;99.90;;;;;;4991718;28;20153;-72
2021/01/28 08:25:57;;;;;;;2.95;1.60;;;2.20;99.90;;;;;;4999539;28;20094;-72
2021/01/28 08:28:24;;;;;;;2.38;1.98;;;2.20;99.90;;;;;;4994463;28;20070;-73
2021/01/28 08:31:02;;;;;;;2.47;1.98;;;2.20;99.90;;;;;;4994674;28;20117;-72
2021/01/28 08:33:28;;;;;;;6.63;2.55;;;2.20;99.90;;;;;;4994787;28;20098;-73
2021/01/28 08:35:59;;;;;;;3.20;2.30;;;2.20;99.90;;;;;;5000404;28;20087;-73
2021/01/28 08:38:30;;;;;;;3.65;2.45;;;2.20;99.90;;;;;;4988056;28;20079;-73
2021/01/28 08:40:59;;;;;;;3.30;3.00;;;2.30;99.90;;;;;;4998905;28;20193;-73
2021/01/28 08:43:24;;;;;;;3.78;2.97;;;2.30;99.90;;;;;;4999713;28;20093;-73
2021/01/28 08:46:05;;;;;;;4.32;2.90;;;2.20;99.90;;;;;;4996151;28;20095;-72
2021/01/28 08:48:30;;;;;;;4.38;3.17;;;2.20;99.90;;;;;;4989582;28;20170;-73
2021/01/28 08:51:17;;;;;;;3.42;2.80;;;2.20;99.90;;;;;;5004502;28;20189;-73
2021/01/28 08:53:47;;;;;;;5.10;3.25;;;2.20;99.90;;;;;;4991588;28;20153;-72
2021/01/28 08:56:24;;;;;;;5.25;3.15;;;2.20;99.90;;;;;;5002248;28;20083;-74
2021/01/28 08:58:50;;;;;;;4.40;3.17;;;2.20;99.90;;;;;;4994450;28;20090;-74
2021/01/28 09:01:16;;;;;;;4.60;3.47;;;2.20;99.90;;;;;;5005812;28;20673;-74
2021/01/28 09:04:27;;;;;;;12.98;3.65;;;2.20;99.90;;;;;;4994167;28;20387;-74
2021/01/28 09:06:53;;;;;;;5.03;3.28;;;2.20;99.90;;;;;;4983173;28;20149;-74
2021/01/28 09:09:31;;;;;;;3.40;2.75;;;2.20;99.90;;;;;;4998185;28;20408;-73
2021/01/28 09:12:30;;;;;;;3.88;2.80;;;2.20;99.90;;;;;;4994104;28;20565;-74
2021/01/28 09:15:14;;;;;;;4.07;3.22;;;2.20;99.90;;;;;;5001608;28;20586;-73
2021/01/28 09:17:40;;;;;;;4.97;3.53;;;2.20;99.90;;;;;;4992065;28;20083;-73
2021/01/28 09:20:06;;;;;;;5.55;3.50;;;2.20;99.90;;;;;;5004960;28;20130;-73
2021/01/28 09:22:38;;;;;;;6.07;4.13;;;2.10;99.90;;;;;;4991613;28;20119;-74
2021/01/28 09:25:18;;;;;;;11.65;4.13;;;2.10;99.90;;;;;;5003144;28;20086;-73
2021/01/28 09:27:58;;;;;;;6.40;4.55;;;2.10;99.90;;;;;;4997301;28;20102;-74
2021/01/28 09:30:31;;;;;;;5.85;3.67;;;2.10;99.90;;;;;;5007972;28;20091;-74
2021/01/28 09:32:57;;;;;;;5.75;3.80;;;2.00;99.90;;;;;;4995237;28;20090;-73
2021/01/28 09:35:25;;;;;;;4.47;3.40;;;2.00;99.90;;;;;;4990670;28;20079;-72
2021/01/28 09:38:17;;;;;;;4.82;3.45;;;2.10;99.90;;;;;;5008391;28;20097;-73
2021/01/28 09:40:46;;;;;;;4.60;3.42;;;2.10;99.90;;;;;;4990627;28;20105;-72
2021/01/28 09:43:24;;;;;;;5.53;3.38;;;2.10;99.90;;;;;;4995602;28;20101;-73
2021/01/28 09:46:17;;;;;;;5.28;3.17;;;2.20;99.90;;;;;;5011653;28;20167;-72
2021/01/28 09:48:43;;;;;;;4.25;3.03;;;2.10;99.90;;;;;;4989256;28;20149;-72
2021/01/28 09:51:11;;;;;;;6.07;3.55;;;2.20;99.90;;;;;;4990537;28;20095;-73
2021/01/28 09:53:37;;;;;;;5.68;3.08;;;2.10;99.90;;;;;;4994046;28;20162;-71
2021/01/28 09:56:04;;;;;;;5.75;2.95;;;2.20;99.90;;;;;;4994584;28;20075;-72
2021/01/28 09:58:29;;;;;;;5.40;2.70;;;2.20;99.90;;;;;;4997646;28;20082;-73
2021/01/28 10:00:55;;;;;;;3.92;2.75;;;2.20;99.90;;;;;;4992830;28;20649;-73
2021/01/28 10:03:21;;;;;;;3.65;2.80;;;2.20;99.90;;;;;;4998910;28;20086;-72
2021/01/28 10:05:47;;;;;;;4.15;3.13;;;2.30;99.90;;;;;;4987930;28;20165;-72
2021/01/28 10:08:16;;;;;;;4.93;3.10;;;2.20;99.90;;;;;;4988967;28;20217;-72
2021/01/28 10:10:42;;;;;;;4.65;3.38;;;2.30;99.90;;;;;;4990030;28;20082;-72
2021/01/28 10:13:12;;;;;;;5.38;3.40;;;2.30;99.90;;;;;;4985758;28;20597;-73
2021/01/28 10:15:38;;;;;;;4.38;3.10;;;2.40;99.90;;;;;;4985560;28;20078;-72
2021/01/28 10:18:04;;;;;;;7.05;3.33;;;2.30;99.90;;;;;;4985191;28;20398;-74
2021/01/28 10:20:29;;;;;;;4.97;3.10;;;2.40;99.90;;;;;;4986405;28;20129;-73
2021/01/28 10:22:59;;;;;;;4.82;3.22;;;2.40;99.90;;;;;;4989756;28;20165;-73
2021/01/28 10:25:25;;;;;;;5.05;3.10;;;2.40;99.90;;;;;;4985756;28;20079;-73
2021/01/28 10:27:50;;;;;;;5.45;3.33;;;2.40;99.90;;;;;;4986621;28;20079;-72
2021/01/28 10:30:18;;;;;;;4.82;3.28;;;2.40;99.90;;;;;;4999058;28;20106;-73
2021/01/28 10:32:45;;;;;;;5.45;3.30;;;2.40;99.90;;;;;;4998477;28;20170;-73
2021/01/28 10:35:11;;;;;;;4.20;3.15;;;2.40;99.90;;;;;;4986502;28;20075;-73
2021/01/28 10:37:37;;;;;;;4.85;3.53;;;2.40;99.90;;;;;;4991804;28;20082;-72
2021/01/28 10:40:04;;;;;;;3.50;2.95;;;2.50;99.90;;;;;;4988604;28;20114;-72
2021/01/28 10:42:38;;;;;;;4.60;3.20;;;2.40;99.90;;;;;;4988212;28;20546;-72
2021/01/28 10:45:10;;;;;;;2.55;2.30;;;2.50;99.90;;;;;;4993431;28;20086;-72
2021/01/28 10:47:36;;;;;;;3.80;2.30;;;2.60;99.90;;;;;;4995124;28;20110;-72
2021/01/28 10:50:04;;;;;;;3.03;2.53;;;2.70;99.90;;;;;;4988107;28;20144;-72
2021/01/28 10:52:29;;;;;;;2.80;2.33;;;2.70;99.90;;;;;;4994878;28;20515;-72
2021/01/28 10:54:55;;;;;;;4.78;3.05;;;2.70;99.90;;;;;;4987928;28;20093;-71
2021/01/28 10:57:20;;;;;;;2.42;2.13;;;2.70;99.90;;;;;;5000918;28;20144;-72
2021/01/28 10:59:46;;;;;;;3.83;2.63;;;2.70;99.90;;;;;;4999748;28;20255;-72
2021/01/28 11:02:11;;;;;;;4.20;3.13;;;2.70;99.90;;;;;;4995824;28;20101;-71
2021/01/28 11:04:37;;;;;;;4.30;2.78;;;2.80;99.90;;;;;;4989087;28;20097;-71
2021/01/28 11:07:02;;;;;;;4.00;2.65;;;2.70;99.90;;;;;;4987305;28;20099;-71
2021/01/28 11:09:28;;;;;;;2.83;2.53;;;2.70;99.90;;;;;;4990134;28;20086;-72
2021/01/28 11:11:53;;;;;;;3.38;2.47;;;2.70;99.90;;;;;;4992535;28;20510;-72
2021/01/28 11:14:19;;;;;;;4.28;3.03;;;2.70;99.90;;;;;;4986616;28;20082;-72
2021/01/28 11:16:45;;;;;;;4.90;3.40;;;2.70;99.90;;;;;;4991146;28;20096;-71
2021/01/28 11:19:10;;;;;;;5.85;2.58;;;2.70;99.90;;;;;;5000400;28;20080;-72
2021/01/28 11:21:36;;;;;;;4.13;2.80;;;2.70;99.90;;;;;;4993417;28;20105;-72
2021/01/28 11:24:02;;;;;;;11.82;5.35;;;2.70;99.90;;;;;;4996691;28;20153;-71
2021/01/28 11:26:27;;;;;;;5.60;3.63;;;2.80;99.90;;;;;;4999197;28;21113;-73
2021/01/28 11:28:53;;;;;;;6.57;3.20;;;2.90;99.90;;;;;;4988406;28;20503;-71
2021/01/28 11:31:19;;;;;;;11.32;6.65;;;2.90;99.90;;;;;;4985125;28;20122;-73
2021/01/28 11:33:44;;;;;;;4.82;3.75;;;2.90;99.90;;;;;;4980721;28;20091;-71
2021/01/28 11:36:10;;;;;;;4.75;3.65;;;3.00;99.90;;;;;;4992789;28;20811;-71
2021/01/28 11:38:35;;;;;;;6.10;3.90;;;3.10;99.90;;;;;;4984285;28;20571;-72
2021/01/28 11:41:03;;;;;;;2.92;2.53;;;3.10;99.90;;;;;;4990311;28;20094;-71
2021/01/28 11:43:30;;;;;;;2.17;1.98;;;3.20;99.90;;;;;;4989064;28;20535;-71
2021/01/28 11:45:56;;;;;;;2.55;1.77;;;3.40;99.90;;;;;;4998684;28;20625;-72
2021/01/28 11:48:21;;;;;;;3.22;2.00;;;3.40;99.90;;;;;;4991057;28;20079;-73
2021/01/28 11:50:47;;;;;;;2.72;2.05;;;3.50;99.90;;;;;;4996543;28;20102;-71
2021/01/28 11:53:13;;;;;;;2.83;1.63;;;3.40;99.90;;;;;;5006962;28;20089;-72
2021/01/28 11:55:39;;;;;;;3.50;2.90;;;3.50;99.90;;;;;;5005532;28;20082;-73
2021/01/28 11:58:04;;;;;;;4.07;3.17;;;3.50;99.90;;;;;;5003877;28;20193;-73
2021/01/28 12:00:30;;;;;;;3.85;3.45;;;3.50;99.90;;;;;;4999357;28;20107;-73
2021/01/28 12:02:56;;;;;;;3.33;2.83;;;3.50;99.90;;;;;;4991377;28;20161;-72
2021/01/28 12:05:24;;;;;;;3.75;2.58;;;3.40;99.90;;;;;;5000608;28;20097;-72
2021/01/28 12:07:51;;;;;;;4.60;3.25;;;3.40;99.90;;;;;;4998007;28;20857;-72
2021/01/28 12:10:17;;;;;;;6.38;3.85;;;3.40;99.90;;;;;;4993254;28;21195;-72
2021/01/28 12:12:43;;;;;;;3.05;2.05;;;3.30;99.90;;;;;;4999180;28;20109;-72
2021/01/28 12:15:13;;;;;;;3.03;2.22;;;3.30;99.90;;;;;;5001567;28;20097;-72
2021/01/28 12:17:39;;;;;;;4.07;2.40;;;3.20;99.90;;;;;;4995917;28;20130;-73
2021/01/28 12:20:06;;;;;;;5.70;4.50;;;3.10;99.90;;;;;;5003103;28;20102;-74
2021/01/28 12:22:32;;;;;;;9.68;3.95;;;3.20;99.90;;;;;;4999311;28;20090;-74
2021/01/28 12:24:57;;;;;;;6.07;3.88;;;3.20;99.90;;;;;;4999010;28;20108;-73
2021/01/28 12:27:23;;;;;;;4.32;3.08;;;3.20;99.90;;;;;;4999123;28;20137;-72
2021/01/28 12:29:49;;;;;;;4.60;3.63;;;3.30;99.90;;;;;;5003342;28;20482;-73
2021/01/28 12:32:15;;;;;;;3.47;2.83;;;3.40;99.90;;;;;;5002059;28;20083;-72
2021/01/28 12:34:40;;;;;;;3.97;3.15;;;3.40;99.90;;;;;;4998330;28;20458;-73
2021/01/28 12:37:06;;;;;;;5.57;4.30;;;3.40;99.90;;;;;;5000975;28;20595;-73
2021/01/28 12:39:32;;;;;;;4.30;3.10;;;3.60;99.90;;;;;;5015309;28;20117;-74
2021/01/28 12:41:59;;;;;;;6.28;4.65;;;3.60;99.90;;;;;;5000744;28;20093;-74
2021/01/28 12:44:25;;;;;;;4.93;3.97;;;3.60;99.90;;;;;;4996248;28;20639;-73
2021/01/28 12:46:50;;;;;;;4.38;3.83;;;3.70;99.90;;;;;;5001876;28;20094;-73
2021/01/28 12:49:16;;;;;;;3.60;2.13;;;3.60;99.90;;;;;;4996972;28;20101;-72
2021/01/28 12:51:42;;;;;;;6.68;4.05;;;3.70;99.90;;;;;;4994361;28;20130;-73
2021/01/28 12:54:07;;;;;;;5.15;3.67;;;3.70;99.90;;;;;;4992313;28;20082;-74
2021/01/28 12:56:33;;;;;;;5.25;3.47;;;3.80;99.90;;;;;;4997112;28;20078;-73
2021/01/28 12:58:59;;;;;;;4.57;3.55;;;3.70;99.90;;;;;;5005056;28;20094;-72
2021/01/28 13:01:24;;;;;;;4.22;3.53;;;3.70;99.90;;;;;;5000003;28;20164;-72
2021/01/28 13:03:50;;;;;;;4.97;2.90;;;3.70;99.90;;;;;;5003662;28;20101;-73
2021/01/28 13:06:16;;;;;;;3.58;3.03;;;3.80;99.90;;;;;;5003353;28;20338;-72
2021/01/28 13:08:42;;;;;;;6.18;4.28;;;3.80;99.90;;;;;;5002486;28;20088;-75
2021/01/28 13:11:11;;;;;;;6.40;4.68;;;3.80;99.90;;;;;;5006355;28;20156;-73
2021/01/28 13:13:38;;;;;;;3.33;2.17;;;3.80;99.90;;;;;;5003846;28;20159;-74
2021/01/28 13:16:04;;;;;;;2.25;1.65;;;3.90;99.90;;;;;;5005504;28;20086;-74